createdAt,value
2022-08-04T00:01:09.463Z,4.78
2022-08-04T00:04:30.404Z,4.88
2022-08-04T00:07:06.005Z,4.88
2022-08-04T00:09:44.635Z,5.07
2022-08-04T00:12:12.880Z,4.97
2022-08-04T00:14:51.167Z,4.93
2022-08-04T00:17:24.097Z,4.70
2022-08-04T00:19:56.621Z,5.05
2022-08-04T00:22:28.734Z,4.63
2022-08-04T00:24:56.425Z,4.38
2022-08-04T00:27:23.959Z,5.13
2022-08-04T00:29:53.167Z,5.25
2022-08-04T00:32:34.178Z,4.72
2022-08-04T00:35:02.229Z,4.65
2022-08-04T00:37:29.057Z,4.63
2022-08-04T00:39:57.063Z,4.78
2022-08-04T00:42:49.334Z,4.57
2022-08-04T00:46:15.428Z,4.85
2022-08-04T00:48:50.335Z,4.93
2022-08-04T00:51:37.722Z,4.90
2022-08-04T00:54:47.245Z,5.00
2022-08-04T00:57:34.537Z,4.80
2022-08-04T01:00:15.583Z,4.97
2022-08-04T01:03:10.841Z,5.00
2022-08-04T01:05:49.884Z,5.07
2022-08-04T01:08:19.237Z,4.70
2022-08-04T01:11:15.413Z,4.80
2022-08-04T01:14:39.477Z,5.07
2022-08-04T01:17:20.624Z,4.90
2022-08-04T01:20:01.413Z,4.57
2022-08-04T01:22:34.323Z,5.15
2022-08-04T01:25:29.652Z,4.97
2022-08-04T01:28:30.073Z,4.82
2022-08-04T01:31:12.986Z,4.57
2022-08-04T01:34:04.072Z,4.43
2022-08-04T01:36:33.473Z,4.38
2022-08-04T01:39:21.030Z,4.95
2022-08-04T01:41:57.921Z,5.10
2022-08-04T01:44:29.784Z,5.90
2022-08-04T01:46:56.744Z,5.00
2022-08-04T01:49:30.042Z,5.20
2022-08-04T01:52:09.543Z,5.45
2022-08-04T01:54:39.647Z,4.97
2022-08-04T01:57:38.713Z,5.07
2022-08-04T01:59:56.236Z,4.80
2022-08-04T02:02:24.781Z,5.00
2022-08-04T02:04:52.197Z,4.72
2022-08-04T02:07:37.247Z,5.13
2022-08-04T02:10:18.314Z,4.95
2022-08-04T02:12:45.014Z,4.70
2022-08-04T02:15:30.648Z,5.22
2022-08-04T02:18:04.840Z,4.78
2022-08-04T02:20:38.494Z,4.57
2022-08-04T02:23:09.929Z,4.53
2022-08-04T02:25:48.905Z,4.72
2022-08-04T02:28:30.385Z,4.90
2022-08-04T02:31:03.278Z,4.82
2022-08-04T02:33:56.069Z,4.57
2022-08-04T02:36:34.837Z,5.05
2022-08-04T02:39:03.912Z,4.45
2022-08-04T02:41:33.143Z,5.00
2022-08-04T02:44:07.451Z,4.80
2022-08-04T02:46:36.570Z,4.88
2022-08-04T02:49:09.541Z,4.65
2022-08-04T02:51:45.577Z,5.07
2022-08-04T02:54:16.092Z,5.00
2022-08-04T02:57:01.239Z,4.68
2022-08-04T02:59:30.312Z,5.07
2022-08-04T03:01:58.466Z,4.63
2022-08-04T03:04:45.344Z,4.75
2022-08-04T03:07:46.994Z,4.90
2022-08-04T03:10:43.162Z,4.50
2022-08-04T03:13:38.907Z,4.82
2022-08-04T03:16:23.532Z,4.78
2022-08-04T03:19:09.225Z,5.45
2022-08-04T03:21:48.046Z,5.07
2022-08-04T03:24:19.601Z,4.90
2022-08-04T03:27:18.753Z,4.93
2022-08-04T03:30:04.266Z,5.28
2022-08-04T03:32:50.060Z,5.07
2022-08-04T03:35:47.702Z,5.03
2022-08-04T03:38:32.984Z,5.53
2022-08-04T03:41:11.942Z,4.93
2022-08-04T03:43:57.446Z,4.80
2022-08-04T03:47:01.298Z,4.78
2022-08-04T03:49:37.042Z,4.88
2022-08-04T03:52:57.008Z,5.53
2022-08-04T03:55:48.617Z,5.47
2022-08-04T03:58:33.996Z,5.85
2022-08-04T04:01:10.856Z,5.20
2022-08-04T04:04:09.546Z,5.50
2022-08-04T04:06:49.774Z,5.60
2022-08-04T04:09:28.730Z,6.00
2022-08-04T04:13:11.793Z,5.57
2022-08-04T04:16:17.869Z,5.15
2022-08-04T04:19:05.438Z,5.50
2022-08-04T04:22:09.345Z,6.30
2022-08-04T04:25:03.019Z,5.60
2022-08-04T04:27:54.901Z,5.97
2022-08-04T04:31:04.757Z,6.70
2022-08-04T04:34:08.224Z,5.50
2022-08-04T04:37:11.965Z,4.47
2022-08-04T04:39:58.766Z,4.70
2022-08-04T04:42:28.533Z,4.75
2022-08-04T04:48:10.032Z,4.53
2022-08-04T04:50:39.836Z,4.32
2022-08-04T04:53:38.700Z,4.15
2022-08-04T04:56:17.397Z,4.33
2022-08-04T04:58:44.346Z,4.07
2022-08-04T05:01:44.297Z,3.90
2022-08-04T05:04:43.764Z,3.97
2022-08-04T05:07:50.396Z,4.18
2022-08-04T05:10:54.838Z,3.90
2022-08-04T05:14:38.964Z,4.32
2022-08-04T05:16:44.779Z,4.40
2022-08-04T05:19:28.809Z,3.95
2022-08-04T05:22:14.609Z,4.53
2022-08-04T05:24:44.751Z,3.67
2022-08-04T05:27:19.627Z,4.20
2022-08-04T05:29:52.926Z,4.00
2022-08-04T05:32:25.628Z,4.00
2022-08-04T05:35:09.761Z,4.38
2022-08-04T05:37:40.550Z,4.10
2022-08-04T05:40:09.500Z,4.18
2022-08-04T05:42:40.182Z,3.90
2022-08-04T05:45:10.082Z,3.95
2022-08-04T05:47:37.414Z,4.05
2022-08-04T05:50:06.429Z,4.75
2022-08-04T05:52:37.452Z,5.07
2022-08-04T05:55:05.665Z,4.72
2022-08-04T05:57:33.534Z,4.90
2022-08-04T06:00:19.809Z,4.78
2022-08-04T06:02:54.028Z,4.60
2022-08-04T06:05:21.481Z,4.68
2022-08-04T06:08:12.367Z,4.50
2022-08-04T06:10:39.941Z,4.75
2022-08-04T06:13:47.714Z,4.28
2022-08-04T06:16:17.828Z,4.70
2022-08-04T06:20:02.190Z,4.57
2022-08-04T06:21:48.946Z,4.88
2022-08-04T06:24:19.959Z,4.60
2022-08-04T06:26:49.671Z,4.50
2022-08-04T06:29:30.780Z,4.50
2022-08-04T06:32:27.285Z,4.20
2022-08-04T06:34:47.704Z,3.90
2022-08-04T06:37:24.161Z,3.80
2022-08-04T06:40:29.288Z,3.55
2022-08-04T06:42:52.017Z,3.70
2022-08-04T06:45:20.489Z,3.50
2022-08-04T06:47:49.395Z,3.70
2022-08-04T06:51:25.474Z,3.70
2022-08-04T06:53:04.432Z,3.38
2022-08-04T06:55:33.501Z,3.20
2022-08-04T06:58:03.301Z,3.50
2022-08-04T07:00:32.188Z,3.80
2022-08-04T07:02:59.971Z,3.30
2022-08-04T07:05:27.027Z,3.30
2022-08-04T07:07:57.672Z,3.20
2022-08-04T07:10:28.070Z,3.30
2022-08-04T07:12:56.951Z,3.28
2022-08-04T07:15:24.826Z,3.28
2022-08-04T07:17:53.201Z,3.35
2022-08-04T07:20:30.531Z,3.47
2022-08-04T07:23:02.883Z,3.17
2022-08-04T07:25:58.999Z,3.13
2022-08-04T07:28:16.869Z,3.00
2022-08-04T07:30:45.314Z,3.17
2022-08-04T07:33:12.774Z,3.03
2022-08-04T07:36:05.174Z,2.95
2022-08-04T07:38:30.524Z,3.25
2022-08-04T07:43:56.782Z,3.03
2022-08-04T07:46:26.709Z,2.70
2022-08-04T07:48:59.586Z,3.15
2022-08-04T07:51:27.205Z,3.33
2022-08-04T07:53:56.702Z,2.85
2022-08-04T07:56:24.494Z,3.08
2022-08-04T07:58:51.422Z,2.80
2022-08-04T08:01:24.765Z,2.90
2022-08-04T08:03:55.471Z,2.80
2022-08-04T08:06:32.624Z,2.75
2022-08-04T08:09:33.359Z,2.67
2022-08-04T08:12:38.169Z,2.83
2022-08-04T08:14:55.244Z,2.67
2022-08-04T08:17:22.307Z,3.00
2022-08-04T08:20:29.181Z,2.80
2022-08-04T08:23:05.335Z,2.70
2022-08-04T08:25:33.463Z,2.70
2022-08-04T08:30:52.468Z,2.50
2022-08-04T08:33:21.388Z,2.72
2022-08-04T08:36:07.943Z,2.20
2022-08-04T08:38:43.405Z,2.22
2022-08-04T08:42:08.215Z,2.53
2022-08-04T08:45:13.053Z,2.42
2022-08-04T08:48:06.133Z,2.45
2022-08-04T08:57:37.914Z,2.92
2022-08-04T09:00:34.638Z,3.20
2022-08-04T09:03:21.971Z,2.88
2022-08-04T09:06:10.266Z,2.63
2022-08-04T09:09:12.245Z,2.78
2022-08-04T09:11:59.829Z,2.65
2022-08-04T09:14:42.049Z,2.70
2022-08-04T09:17:22.419Z,2.60
2022-08-04T09:19:59.453Z,2.70
2022-08-04T09:22:34.650Z,2.50
2022-08-04T09:25:10.987Z,2.90
2022-08-04T09:27:50.341Z,2.65
2022-08-04T09:30:22.831Z,3.00
2022-08-04T09:32:58.493Z,2.63
2022-08-04T09:36:02.007Z,2.70
2022-08-04T09:38:43.733Z,2.92
2022-08-04T09:41:48.207Z,2.78
2022-08-04T09:44:50.860Z,2.90
2022-08-04T09:47:23.494Z,2.60
2022-08-04T09:50:00.522Z,2.90
2022-08-04T09:52:39.776Z,2.65
2022-08-04T09:55:25.573Z,3.03
2022-08-04T09:58:13.029Z,2.92
2022-08-04T10:00:51.257Z,2.63
2022-08-04T10:03:23.453Z,2.85
2022-08-04T10:06:30.214Z,2.88
2022-08-04T10:09:09.558Z,2.70
2022-08-04T10:11:55.881Z,2.83
2022-08-04T10:14:32.770Z,2.97
2022-08-04T10:17:12.241Z,3.22
2022-08-04T10:19:41.938Z,3.20
2022-08-04T10:22:29.172Z,2.90
2022-08-04T10:26:05.965Z,2.80
2022-08-04T10:28:15.945Z,2.65
2022-08-04T10:30:52.125Z,2.70
2022-08-04T10:33:28.056Z,3.10
2022-08-04T10:36:02.136Z,2.92
2022-08-04T10:38:40.867Z,3.00
2022-08-04T10:41:20.403Z,2.70
2022-08-04T10:44:09.712Z,2.75
2022-08-04T10:46:44.514Z,3.20
2022-08-04T10:49:21.959Z,3.08
2022-08-04T10:52:07.726Z,3.13
2022-08-04T10:54:50.356Z,2.85
2022-08-04T10:57:27.907Z,2.83
2022-08-04T11:00:05.940Z,3.10
2022-08-04T11:03:09.212Z,2.83
2022-08-04T11:05:55.587Z,2.88
2022-08-04T11:08:37.945Z,2.70
2022-08-04T11:11:19.849Z,3.10
2022-08-04T11:14:04.464Z,3.03
2022-08-04T11:16:40.339Z,2.85
2022-08-04T11:19:18.086Z,3.15
2022-08-04T11:21:55.597Z,2.97
2022-08-04T11:24:45.080Z,3.00
2022-08-04T11:27:47.570Z,3.47
2022-08-04T11:30:17.828Z,3.10
2022-08-04T11:33:01.566Z,3.05
2022-08-04T11:35:35.056Z,2.88
2022-08-04T11:38:38.147Z,3.00
2022-08-04T11:41:13.228Z,2.80
2022-08-04T11:44:04.909Z,2.80
2022-08-04T11:46:43.046Z,2.90
2022-08-04T11:49:22.195Z,2.70
2022-08-04T11:51:52.191Z,2.60
2022-08-04T11:54:20.277Z,2.70
2022-08-04T11:56:47.239Z,3.17
2022-08-04T11:59:14.949Z,2.80
2022-08-04T12:02:02.968Z,2.72
2022-08-04T12:04:57.121Z,2.70
2022-08-04T12:07:45.022Z,2.92
2022-08-04T12:10:11.956Z,2.92
2022-08-04T12:12:47.011Z,3.00
2022-08-04T12:15:29.601Z,3.00
2022-08-04T12:18:14.744Z,3.13
2022-08-04T12:20:59.070Z,3.30
2022-08-04T12:23:33.608Z,2.90
2022-08-04T12:26:07.720Z,2.90
2022-08-04T12:29:08.672Z,3.05
2022-08-04T12:31:45.503Z,3.10
2022-08-04T12:34:39.340Z,3.13
2022-08-04T12:37:43.450Z,3.08
2022-08-04T12:40:27.719Z,2.70
2022-08-04T12:43:06.237Z,2.70
2022-08-04T12:45:33.958Z,2.67
2022-08-04T12:48:04.864Z,3.28
2022-08-04T12:50:32.446Z,3.10
2022-08-04T12:53:01.981Z,2.78
2022-08-04T12:55:32.085Z,2.97
2022-08-04T12:58:01.781Z,3.10
2022-08-04T13:00:40.600Z,2.67
2022-08-04T13:03:14.986Z,3.00
2022-08-04T13:05:43.813Z,2.95
2022-08-04T13:08:12.619Z,2.63
2022-08-04T13:10:47.504Z,3.10
2022-08-04T13:13:20.030Z,2.85
2022-08-04T13:16:01.773Z,2.85
2022-08-04T13:18:32.500Z,2.80
2022-08-04T13:21:20.608Z,2.80
2022-08-04T13:26:43.430Z,2.70
2022-08-04T13:29:59.973Z,3.22
2022-08-04T13:34:49.189Z,2.92
2022-08-04T13:37:25.668Z,3.08
2022-08-04T13:39:55.682Z,2.80
2022-08-04T13:42:25.969Z,2.90
2022-08-04T13:45:01.134Z,2.67
2022-08-04T13:47:34.238Z,2.78
2022-08-04T13:50:16.804Z,3.28
2022-08-04T13:52:45.252Z,3.10
2022-08-04T13:55:24.793Z,2.78
2022-08-04T13:58:00.181Z,2.67
2022-08-04T14:00:40.600Z,2.80
2022-08-04T14:03:23.060Z,3.00
2022-08-04T14:06:09.663Z,2.80
2022-08-04T14:08:56.673Z,3.00
2022-08-04T14:12:06.251Z,2.90
2022-08-04T14:14:51.085Z,3.17
2022-08-04T14:17:24.790Z,3.00
2022-08-04T14:20:03.810Z,2.85
2022-08-04T14:22:34.769Z,2.80
2022-08-04T14:25:15.502Z,2.70
2022-08-04T14:27:52.023Z,2.90
2022-08-04T14:30:26.024Z,3.15
2022-08-04T14:32:57.691Z,2.90
2022-08-04T14:35:26.510Z,3.00
2022-08-04T14:38:13.064Z,2.85
2022-08-04T14:40:43.378Z,2.80
2022-08-04T14:43:10.532Z,2.60
2022-08-04T14:45:54.764Z,2.90
2022-08-04T14:48:22.431Z,3.00
2022-08-04T14:50:50.672Z,2.65
2022-08-04T14:53:24.273Z,2.85
2022-08-04T14:55:54.561Z,2.80
2022-08-04T14:58:34.355Z,2.92
2022-08-04T15:01:09.596Z,2.95
2022-08-04T15:03:52.190Z,2.72
2022-08-04T15:06:30.809Z,2.80
2022-08-04T15:09:04.465Z,2.63
2022-08-04T15:11:31.321Z,2.95
2022-08-04T15:13:59.330Z,2.92
2022-08-04T15:16:29.020Z,2.80
2022-08-04T15:18:56.891Z,2.88
2022-08-04T15:21:28.244Z,2.90
2022-08-04T15:23:57.399Z,2.65
2022-08-04T15:26:42.403Z,2.70
2022-08-04T15:29:17.225Z,3.08
2022-08-04T15:32:06.086Z,2.90
2022-08-04T15:34:46.427Z,3.00
2022-08-04T15:37:18.138Z,2.75
2022-08-04T15:39:53.143Z,2.78
2022-08-04T15:42:36.102Z,3.10
2022-08-04T15:45:05.699Z,3.22
2022-08-04T15:47:32.659Z,2.90
2022-08-04T15:50:11.654Z,2.90
2022-08-04T15:52:59.619Z,3.00
2022-08-04T15:55:39.575Z,3.17
2022-08-04T15:58:15.088Z,3.22
2022-08-04T16:00:51.044Z,3.20
2022-08-04T16:03:54.541Z,3.20
2022-08-04T16:06:23.167Z,2.92
2022-08-04T16:08:57.865Z,3.25
2022-08-04T16:11:31.817Z,3.30
2022-08-04T16:13:58.967Z,3.88
2022-08-04T16:16:41.191Z,3.42
2022-08-04T16:19:10.514Z,3.50
2022-08-04T16:21:52.386Z,3.90
2022-08-04T16:24:28.032Z,4.68
2022-08-04T16:26:57.362Z,3.42
2022-08-04T16:29:24.129Z,3.60
2022-08-04T16:32:06.632Z,3.70
2022-08-04T16:34:48.357Z,3.47
2022-08-04T16:37:19.030Z,3.25
2022-08-04T16:39:49.886Z,3.28
2022-08-04T16:42:32.979Z,3.25
2022-08-04T16:45:08.923Z,3.50
2022-08-04T16:47:47.997Z,3.80
2022-08-04T16:52:49.572Z,3.70
2022-08-04T16:55:20.793Z,3.97
2022-08-04T16:57:52.660Z,3.83
2022-08-04T17:00:30.442Z,3.03
2022-08-04T17:02:57.791Z,4.00
2022-08-04T17:05:38.561Z,3.97
2022-08-04T17:08:29.075Z,4.22
2022-08-04T17:10:55.868Z,4.30
2022-08-04T17:14:03.150Z,3.42
2022-08-04T17:16:18.030Z,3.67
2022-08-04T17:18:55.523Z,4.32
2022-08-04T17:21:28.654Z,4.47
2022-08-04T17:24:14.361Z,6.65
2022-08-04T17:26:53.770Z,4.25
2022-08-04T17:29:44.351Z,3.90
2022-08-04T17:32:16.908Z,4.78
2022-08-04T17:34:49.390Z,4.78
2022-08-04T17:44:05.192Z,4.50
2022-08-04T17:46:28.557Z,6.72
2022-08-04T17:49:22.592Z,4.93
2022-08-04T17:52:10.375Z,7.03
2022-08-04T17:54:43.457Z,5.75
2022-08-04T17:57:21.926Z,4.90
2022-08-04T17:59:57.426Z,4.50
2022-08-04T18:02:40.373Z,4.75
2022-08-04T18:05:11.359Z,4.57
2022-08-04T18:08:34.842Z,4.38
2022-08-04T18:10:52.696Z,5.15
2022-08-04T18:13:28.189Z,5.13
2022-08-04T18:16:12.662Z,4.50
2022-08-04T18:18:41.690Z,5.63
2022-08-04T18:21:16.009Z,5.72
2022-08-04T18:23:51.049Z,5.00
2022-08-04T18:26:18.188Z,5.22
2022-08-04T18:28:50.750Z,4.60
2022-08-04T18:31:17.484Z,17.52
2022-08-04T18:33:44.284Z,25.60
2022-08-04T18:36:34.922Z,11.57
2022-08-04T18:39:13.239Z,5.57
2022-08-04T18:42:01.249Z,5.80
2022-08-04T18:44:32.137Z,7.00
2022-08-04T18:47:19.305Z,8.90
2022-08-04T18:51:00.405Z,8.13
2022-08-04T18:52:34.803Z,6.85
2022-08-04T18:55:02.234Z,6.05
2022-08-04T18:57:59.145Z,4.93
2022-08-04T19:00:19.985Z,11.97
2022-08-04T19:05:17.470Z,9.13
2022-08-04T19:08:01.659Z,8.50
2022-08-04T19:10:29.661Z,9.18
2022-08-04T19:12:59.542Z,7.80
2022-08-04T19:15:34.344Z,8.35
2022-08-04T19:18:02.134Z,8.02
2022-08-04T19:20:29.850Z,8.05
2022-08-04T19:24:31.997Z,8.55
2022-08-04T19:26:01.541Z,9.02
2022-08-04T19:28:34.011Z,7.80
2022-08-04T19:31:10.806Z,6.20
2022-08-04T19:36:33.656Z,6.43
2022-08-04T19:42:04.678Z,5.10
2022-08-04T19:44:23.613Z,4.22
2022-08-04T19:46:51.602Z,4.88
2022-08-04T19:50:04.408Z,4.53
2022-08-04T19:52:10.960Z,4.85
2022-08-04T19:54:40.835Z,5.57
2022-08-04T19:57:09.022Z,4.85
2022-08-04T19:59:39.326Z,4.95
2022-08-04T20:02:15.743Z,6.47
2022-08-04T20:04:42.707Z,7.95
2022-08-04T20:07:14.190Z,6.88
2022-08-04T20:09:41.332Z,5.10
2022-08-04T20:12:22.892Z,5.32
2022-08-04T20:14:51.221Z,5.10
2022-08-04T20:17:18.341Z,5.75
2022-08-04T20:19:51.275Z,6.47
2022-08-04T20:22:51.847Z,5.70
2022-08-04T20:25:36.162Z,5.50
2022-08-04T20:28:00.125Z,5.88
2022-08-04T20:30:28.722Z,5.85
2022-08-04T20:32:55.681Z,6.47
2022-08-04T20:35:26.956Z,6.28
2022-08-04T20:38:00.476Z,6.07
2022-08-04T20:40:30.052Z,6.60
2022-08-04T20:42:58.171Z,6.35
2022-08-04T20:45:55.623Z,7.30
2022-08-04T20:48:12.417Z,7.13
2022-08-04T20:50:39.662Z,7.07
2022-08-04T20:53:16.634Z,6.40
2022-08-04T20:55:54.676Z,7.13
2022-08-04T20:58:22.435Z,6.65
2022-08-04T21:00:55.109Z,6.10
2022-08-04T21:03:49.881Z,6.60
2022-08-04T21:08:39.042Z,6.03
2022-08-04T21:11:06.906Z,5.38
2022-08-04T21:13:52.042Z,5.80
2022-08-04T21:16:55.072Z,5.68
2022-08-04T21:19:13.119Z,5.38
2022-08-04T21:21:42.340Z,5.43
2022-08-04T21:24:10.125Z,5.28
2022-08-04T21:26:42.811Z,5.28
2022-08-04T21:29:13.715Z,5.40
2022-08-04T21:31:50.170Z,5.22
2022-08-04T21:34:31.511Z,4.63
2022-08-04T21:37:05.697Z,5.50
2022-08-04T21:39:33.254Z,5.93
2022-08-04T21:42:29.403Z,5.60
2022-08-04T21:44:57.742Z,5.43
2022-08-04T21:47:24.588Z,5.25
2022-08-04T21:49:56.515Z,5.03
2022-08-04T21:52:24.768Z,4.40
2022-08-04T21:54:54.205Z,4.60
2022-08-04T21:57:22.771Z,4.75
2022-08-04T21:59:52.566Z,5.05
2022-08-04T22:02:19.606Z,5.10
2022-08-04T22:04:48.388Z,4.93
2022-08-04T22:07:17.044Z,4.53
2022-08-04T22:10:00.180Z,4.28
2022-08-04T22:12:27.508Z,4.43
2022-08-04T22:14:59.670Z,4.90
2022-08-04T22:17:29.459Z,5.10
2022-08-04T22:20:03.089Z,4.75
2022-08-04T22:22:33.743Z,4.72
2022-08-04T22:25:12.414Z,4.38
2022-08-04T22:28:00.808Z,5.43
2022-08-04T22:30:33.170Z,4.57
2022-08-04T22:33:07.687Z,5.20
2022-08-04T22:35:43.520Z,5.45
2022-08-04T22:38:29.014Z,5.70
2022-08-04T22:41:10.612Z,4.97
2022-08-04T22:43:38.319Z,4.97
2022-08-04T22:46:08.206Z,5.10
2022-08-04T22:48:37.704Z,4.95
2022-08-04T22:51:07.091Z,5.30
2022-08-04T22:53:35.362Z,5.32
2022-08-04T22:56:09.517Z,4.93
2022-08-04T22:58:40.008Z,6.13
2022-08-04T23:01:08.772Z,5.80
2022-08-04T23:03:38.452Z,5.57
2022-08-04T23:06:11.759Z,5.20
2022-08-04T23:08:43.026Z,5.40
2022-08-04T23:11:14.937Z,5.90
2022-08-04T23:13:42.162Z,6.28
2022-08-04T23:16:10.416Z,5.80
2022-08-04T23:18:40.116Z,5.20
2022-08-04T23:21:11.188Z,5.30
2022-08-04T23:23:47.762Z,5.50
2022-08-04T23:26:27.640Z,5.18
2022-08-04T23:28:56.112Z,5.50
2022-08-04T23:31:23.626Z,5.93
2022-08-04T23:33:51.841Z,6.22
2022-08-04T23:36:29.582Z,6.00
2022-08-04T23:39:04.103Z,5.37
2022-08-04T23:41:53.451Z,5.55
2022-08-04T23:44:25.199Z,5.60
2022-08-04T23:47:02.937Z,5.85
2022-08-04T23:49:43.457Z,6.07
2022-08-04T23:52:27.437Z,6.05
2022-08-04T23:54:58.351Z,6.38
2022-08-04T23:58:02.625Z,6.00
